Time;durP1;ratioP1;P1;durP2;ratioP2;P2;SDS_P1;SDS_P2;PMS_P1;PMS_P2;Temp;Humidity;BMP_temperature;BMP_pressure;BME280_temperature;BME280_humidity;BME280_pressure;Samples;Min_cycle;Max_cycle;Signal;HPM_P1;HPM_P2
2021/07/10 00:01:22;;;;;;;9.08;7.87;;;;;;;23.80;63.25;101013.31;1712921;82;22154;-63
2021/07/10 00:03:49;;;;;;;8.48;7.22;;;;;;;23.74;63.22;101016.28;1685889;84;21058;-63
2021/07/10 00:06:15;;;;;;;10.08;8.50;;;;;;;23.65;63.05;101018.77;1707432;82;21087;-63
2021/07/10 00:08:43;;;;;;;9.23;7.72;;;;;;;23.56;63.27;101017.56;1695051;82;21083;-63
2021/07/10 00:11:11;;;;;;;12.25;8.73;;;;;;;23.55;63.62;101012.38;1697640;83;21082;-63
2021/07/10 00:13:40;;;;;;;9.40;8.13;;;;;;;23.57;64.00;101017.07;1701666;83;21582;-63
2021/07/10 00:16:08;;;;;;;10.90;8.13;;;;;;;23.60;63.95;101023.37;1736391;80;21563;-63
2021/07/10 00:18:34;;;;;;;11.50;8.58;;;;;;;23.58;63.86;101020.06;1730132;80;21070;-63
2021/07/10 00:21:01;;;;;;;10.82;8.68;;;;;;;23.53;63.96;101019.28;1705530;82;21098;-63
2021/07/10 00:23:27;;;;;;;14.50;8.33;;;;;;;23.52;63.91;101006.90;1675707;84;21070;-63
2021/07/10 00:25:54;;;;;;;10.90;8.05;;;;;;;23.46;63.98;101010.34;1731973;81;21505;-63
2021/07/10 00:28:20;;;;;;;11.05;8.10;;;;;;;23.40;64.19;101010.28;1640498;85;21601;-62
2021/07/10 00:30:47;;;;;;;9.45;7.53;;;;;;;23.33;64.32;101005.70;1691847;83;21661;-62
2021/07/10 00:33:13;;;;;;;11.30;8.03;;;;;;;23.33;64.40;101011.56;1689865;84;21082;-63
2021/07/10 00:35:40;;;;;;;9.58;7.90;;;;;;;23.34;64.27;101006.52;1690612;84;21074;-63
2021/07/10 00:38:06;;;;;;;9.68;8.68;;;;;;;23.33;64.49;101011.56;1676968;83;21493;-63
2021/07/10 00:40:33;;;;;;;11.18;8.33;;;;;;;23.29;64.66;101008.95;1735055;80;21043;-62
2021/07/10 00:43:00;;;;;;;9.53;7.67;;;;;;;23.22;64.72;101006.20;1694564;82;21086;-62
2021/07/10 00:45:27;;;;;;;9.90;8.15;;;;;;;23.18;64.83;101007.09;1649397;85;21676;-62
2021/07/10 00:47:53;;;;;;;13.88;9.10;;;;;;;23.14;64.92;101000.95;1734691;80;21134;-63
2021/07/10 00:50:22;;;;;;;11.03;7.42;;;;;;;23.14;65.64;100999.61;1737980;82;21913;-62
2021/07/10 00:52:50;;;;;;;11.00;7.90;;;;;;;23.15;65.42;100997.26;1731979;80;21102;-63
2021/07/10 00:55:18;;;;;;;12.80;8.75;;;;;;;23.11;64.90;101001.33;1734135;82;21378;-62
2021/07/10 00:57:44;;;;;;;10.20;7.95;;;;;;;23.09;64.78;100998.02;1720561;80;21074;-63
2021/07/10 01:00:17;;;;;;;11.25;8.18;;;;;;;23.02;64.29;100992.54;1738168;80;21059;-62
2021/07/10 01:02:44;;;;;;;10.40;7.92;;;;;;;22.95;64.23;100987.62;1706534;82;21138;-62
2021/07/10 01:05:14;;;;;;;11.20;8.93;;;;;;;22.88;64.43;100989.37;1643966;83;21064;-62
2021/07/10 01:07:42;;;;;;;9.58;8.18;;;;;;;22.80;64.75;100983.11;1727187;81;21114;-62
2021/07/10 01:10:10;;;;;;;15.13;8.28;;;;;;;22.77;65.25;100988.84;1675317;83;21493;-62
2021/07/10 01:12:39;;;;;;;10.25;7.92;;;;;;;22.76;65.69;100991.72;1667550;84;21083;-62
2021/07/10 01:15:09;;;;;;;13.00;8.33;;;;;;;22.79;65.85;100985.98;1670389;85;22027;-62
2021/07/10 01:17:37;;;;;;;10.43;8.40;;;;;;;22.80;65.94;100985.80;1662977;84;21060;-62
2021/07/10 01:20:09;;;;;;;10.88;8.53;;;;;;;22.81;66.12;100991.49;1668060;84;21705;-62
2021/07/10 01:22:39;;;;;;;9.30;8.18;;;;;;;22.77;66.01;100984.83;1668268;84;21074;-62
2021/07/10 01:25:09;;;;;;;12.35;8.18;;;;;;;22.76;66.30;100983.19;1648150;85;21079;-62
2021/07/10 01:27:36;;;;;;;10.15;8.05;;;;;;;22.74;66.47;100978.48;1662452;84;21198;-62
2021/07/10 01:30:07;;;;;;;10.65;8.18;;;;;;;22.71;66.46;100977.55;1669837;84;21123;-62
2021/07/10 01:32:33;;;;;;;10.43;8.28;;;;;;;22.72;66.28;100971.15;1689159;84;21617;-62
2021/07/10 01:35:00;;;;;;;11.20;8.15;;;;;;;22.75;66.25;100972.12;1671929;84;21170;-62
2021/07/10 01:37:26;;;;;;;10.08;8.33;;;;;;;22.78;66.46;100978.97;1646857;85;21586;-62
2021/07/10 01:39:54;;;;;;;13.68;8.65;;;;;;;22.77;66.18;100986.16;1667950;84;21167;-62
2021/07/10 01:42:21;;;;;;;9.63;7.95;;;;;;;22.70;65.80;100985.27;1730173;81;21608;-62
2021/07/10 01:44:49;;;;;;;10.68;8.43;;;;;;;22.61;65.48;100976.98;1730756;81;21670;-63
2021/07/10 01:47:16;;;;;;;12.63;9.13;;;;;;;22.55;65.45;100975.08;1730175;82;21122;-62
2021/07/10 01:49:42;;;;;;;10.23;8.65;;;;;;;22.51;65.51;100970.60;1728677;81;21081;-62
2021/07/10 01:52:10;;;;;;;10.70;8.28;;;;;;;22.45;65.55;100974.84;1731519;80;20993;-62
2021/07/10 01:54:37;;;;;;;10.88;8.28;;;;;;;22.43;65.98;100970.18;1731205;81;21511;-62
2021/07/10 01:57:08;;;;;;;11.00;9.13;;;;;;;22.49;65.92;100973.95;1669388;84;21120;-62
2021/07/10 01:59:34;;;;;;;11.12;8.20;;;;;;;22.52;66.04;100972.77;1665068;84;21075;-62
2021/07/10 02:02:00;;;;;;;10.98;8.55;;;;;;;22.54;66.51;100975.56;1687583;82;21515;-62
2021/07/10 02:04:27;;;;;;;12.68;8.48;;;;;;;22.55;66.74;100973.73;1728655;82;21111;-62
2021/07/10 02:06:53;;;;;;;12.15;8.60;;;;;;;22.55;66.86;100975.08;1720579;82;21118;-62
2021/07/10 02:09:20;;;;;;;13.15;8.78;;;;;;;22.51;66.69;100971.94;1722227;81;21720;-62
2021/07/10 02:11:49;;;;;;;9.60;8.63;;;;;;;22.47;66.66;100968.47;1718443;81;21062;-62
2021/07/10 02:14:18;;;;;;;10.18;8.63;;;;;;;22.44;66.74;100965.16;1713675;82;21128;-62
2021/07/10 02:16:48;;;;;;;11.12;8.58;;;;;;;22.49;66.65;100969.11;1711350;82;21133;-62
2021/07/10 02:19:17;;;;;;;9.93;8.65;;;;;;;22.52;66.71;100964.72;1722073;82;21591;-63
2021/07/10 02:21:43;;;;;;;10.93;8.60;;;;;;;22.53;66.72;100964.53;1715213;82;21582;-63
2021/07/10 02:24:10;;;;;;;11.88;8.85;;;;;;;22.51;66.67;100959.88;1715208;82;21059;-62
2021/07/10 02:26:37;;;;;;;12.10;9.10;;;;;;;22.52;66.82;100964.72;1719851;82;21523;-63
2021/07/10 02:29:05;;;;;;;10.35;9.03;;;;;;;22.51;66.91;100963.05;1721181;82;21103;-62
2021/07/10 02:31:33;;;;;;;11.00;8.65;;;;;;;22.50;66.83;100966.77;1711015;81;21102;-62
2021/07/10 02:34:02;;;;;;;9.83;8.48;;;;;;;22.53;66.69;100967.22;1718739;82;21612;-62
2021/07/10 02:36:28;;;;;;;11.65;8.23;;;;;;;22.59;66.50;100961.60;1714401;82;21516;-63
2021/07/10 02:38:55;;;;;;;11.48;9.93;;;;;;;22.67;66.36;100968.20;1717608;82;21388;-63
2021/07/10 02:41:21;;;;;;;10.18;8.53;;;;;;;22.70;66.15;100976.40;1717904;82;21462;-63
2021/07/10 02:43:48;;;;;;;9.55;7.92;;;;;;;22.67;66.18;100977.59;1719175;82;21110;-63
2021/07/10 02:46:16;;;;;;;11.97;8.70;;;;;;;22.63;66.20;100973.11;1712744;82;21119;-63
2021/07/10 02:48:47;;;;;;;14.18;10.85;;;;;;;22.59;66.21;100966.97;1714096;82;22004;-63
2021/07/10 02:51:14;;;;;;;13.48;10.20;;;;;;;22.55;66.49;100968.38;1701829;82;21574;-64
2021/07/10 02:53:42;;;;;;;11.43;8.98;;;;;;;22.52;66.96;100970.08;1703308;82;21135;-63
2021/07/10 02:56:09;;;;;;;10.90;9.00;;;;;;;22.56;67.05;100967.34;1713801;82;21056;-63
2021/07/10 02:58:35;;;;;;;12.18;9.38;;;;;;;22.59;66.83;100958.43;1707047;82;21062;-63
2021/07/10 03:01:02;;;;;;;11.30;8.65;;;;;;;22.62;66.69;100963.91;1706412;82;21578;-62
2021/07/10 03:03:28;;;;;;;10.72;8.55;;;;;;;22.62;66.72;100965.25;1708811;82;21078;-64
2021/07/10 03:05:55;;;;;;;10.32;9.08;;;;;;;22.63;66.84;100963.73;1701347;82;22191;-66
2021/07/10 03:08:22;;;;;;;12.37;8.55;;;;;;;22.63;67.02;100958.36;1730501;82;21056;-67
2021/07/10 03:10:50;;;;;;;12.55;9.03;;;;;;;22.61;67.11;100960.41;1674680;84;21192;-76
2021/07/10 03:13:17;;;;;;;12.98;10.15;;;;;;;22.65;66.83;100963.54;1679920;83;21058;-69
2021/07/10 03:15:44;;;;;;;12.55;8.83;;;;;;;22.65;66.54;100962.20;1675669;84;21090;-68
2021/07/10 03:18:10;;;;;;;10.63;9.10;;;;;;;22.62;66.39;100958.55;1680940;83;21067;-67
2021/07/10 03:20:36;;;;;;;10.98;8.93;;;;;;;22.56;66.51;100960.14;1683098;83;21472;-71
2021/07/10 03:23:03;;;;;;;11.63;8.43;;;;;;;22.52;66.62;100958.84;1684726;84;21170;-64
2021/07/10 03:25:29;;;;;;;13.22;9.30;;;;;;;22.49;66.90;100959.20;1675473;84;21516;-63
2021/07/10 03:27:57;;;;;;;12.40;8.70;;;;;;;22.50;67.13;100961.40;1675688;84;21094;-64
2021/07/10 03:30:24;;;;;;;11.60;8.60;;;;;;;22.56;67.19;100961.97;1676967;84;21348;-64
2021/07/10 03:32:52;;;;;;;11.75;9.13;;;;;;;22.66;67.07;100953.63;1681490;83;21580;-63
2021/07/10 03:35:20;;;;;;;13.62;9.90;;;;;;;22.72;66.99;100955.05;1672534;84;21416;-64
2021/07/10 03:37:47;;;;;;;14.00;10.10;;;;;;;22.76;66.99;100948.30;1652644;84;21105;-64
2021/07/10 03:40:17;;;;;;;11.60;8.95;;;;;;;22.78;67.16;100945.44;1685176;83;21105;-63
2021/07/10 03:42:44;;;;;;;12.93;9.65;;;;;;;22.80;67.26;100949.58;1680434;83;21807;-64
2021/07/10 03:45:11;;;;;;;12.28;9.05;;;;;;;22.86;67.31;100951.17;1688795;83;21079;-64
2021/07/10 03:47:37;;;;;;;13.00;9.70;;;;;;;22.92;67.29;100949.08;1684598;83;21103;-64
2021/07/10 03:50:08;;;;;;;10.48;9.20;;;;;;;23.02;67.12;100950.94;1672269;83;21563;-66
2021/07/10 03:52:35;;;;;;;10.68;9.13;;;;;;;23.12;67.00;100949.31;1670214;83;21059;-63
2021/07/10 03:55:04;;;;;;;13.83;10.13;;;;;;;23.21;67.10;100943.30;1678437;83;21651;-73
2021/07/10 03:57:30;;;;;;;11.03;8.68;;;;;;;23.26;66.91;100942.21;1680687;83;21106;-72
2021/07/10 03:59:57;;;;;;;13.53;9.30;;;;;;;23.33;66.77;100941.75;1683905;83;21080;-66
2021/07/10 04:02:24;;;;;;;10.18;8.15;;;;;;;23.40;66.48;100945.84;1654160;84;21134;-69
2021/07/10 04:04:51;;;;;;;10.58;8.98;;;;;;;23.47;66.47;100946.22;1675187;84;21693;-66
2021/07/10 04:07:18;;;;;;;10.05;8.43;;;;;;;23.59;66.23;100933.58;1679321;83;21087;-63
2021/07/10 04:09:45;;;;;;;11.68;9.43;;;;;;;23.71;65.99;100938.23;1669179;84;21154;-62
2021/07/10 04:12:12;;;;;;;13.62;8.60;;;;;;;23.79;65.68;100931.89;1659127;83;21676;-63
2021/07/10 04:14:39;;;;;;;10.60;8.68;;;;;;;23.85;65.40;100929.77;1674622;83;21138;-62
2021/07/10 04:17:05;;;;;;;11.22;8.38;;;;;;;23.87;64.39;100933.11;1679385;84;21661;-62
2021/07/10 04:19:32;;;;;;;9.60;7.75;;;;;;;23.91;64.35;100933.55;1675754;83;21103;-61
2021/07/10 04:21:59;;;;;;;10.43;7.65;;;;;;;23.92;62.99;100930.66;1724840;81;22221;-62
2021/07/10 04:24:26;;;;;;;10.38;7.35;;;;;;;23.95;62.14;100929.94;1721124;81;21071;-62
2021/07/10 04:26:53;;;;;;;8.00;6.97;;;;;;;23.97;61.29;100927.36;1714197;81;21084;-63
2021/07/10 04:29:19;;;;;;;9.20;6.17;;;;;;;23.99;60.95;100924.47;1723850;80;21471;-62
2021/07/10 04:31:47;;;;;;;9.38;6.35;;;;;;;24.02;60.66;100926.25;1727212;81;21095;-62
2021/07/10 04:34:13;;;;;;;9.00;6.62;;;;;;;24.07;59.80;100928.34;1726115;81;21467;-61
2021/07/10 04:36:40;;;;;;;9.88;6.42;;;;;;;24.16;59.51;100920.94;1727307;81;21086;-60
2021/07/10 04:39:06;;;;;;;8.00;6.08;;;;;;;24.20;58.87;100920.34;1720922;81;21630;-61
2021/07/10 04:41:33;;;;;;;8.08;6.08;;;;;;;24.23;58.45;100923.16;1666308;84;21129;-63
2021/07/10 04:43:59;;;;;;;12.37;6.50;;;;;;;24.25;59.10;100924.61;1665970;84;21830;-62
2021/07/10 04:46:26;;;;;;;8.90;6.60;;;;;;;24.31;59.20;100924.34;1669940;85;21131;-60
2021/07/10 04:48:52;;;;;;;8.30;6.22;;;;;;;24.36;59.09;100923.23;1665403;83;21133;-69
2021/07/10 04:51:19;;;;;;;11.60;6.90;;;;;;;24.39;58.58;100917.42;1678241;83;21094;-67
2021/07/10 04:53:47;;;;;;;9.30;6.97;;;;;;;24.44;58.24;100915.48;1681109;83;21158;-71
2021/07/10 04:56:14;;;;;;;8.98;6.55;;;;;;;24.48;58.42;100915.41;1677757;83;21977;-67
2021/07/10 04:58:43;;;;;;;8.98;6.33;;;;;;;24.49;58.51;100913.01;1676625;83;21055;-66
2021/07/10 05:01:08;;;;;;;7.80;5.97;;;;;;;24.52;58.83;100904.54;1645633;84;21150;-68
2021/07/10 05:03:35;;;;;;;10.00;6.33;;;;;;;24.57;58.82;100906.14;1723481;81;21069;-64
2021/07/10 05:06:02;;;;;;;9.28;6.47;;;;;;;24.69;58.84;100904.20;1702137;82;21080;-69
2021/07/10 05:08:28;;;;;;;8.93;6.40;;;;;;;24.78;58.79;100908.35;1718604;81;21187;-67
2021/07/10 05:10:55;;;;;;;9.38;6.80;;;;;;;24.85;58.91;100913.25;1668375;84;21089;-64
2021/07/10 05:13:22;;;;;;;8.83;5.75;;;;;;;24.91;59.03;100905.69;1663521;84;21720;-65
2021/07/10 05:15:49;;;;;;;8.83;6.37;;;;;;;24.96;58.79;100905.08;1699463;81;21078;-72
2021/07/10 05:18:15;;;;;;;8.63;6.37;;;;;;;25.00;58.37;100904.47;1720338;81;21086;-60
2021/07/10 05:20:41;;;;;;;7.60;5.53;;;;;;;25.04;58.31;100902.19;1706482;82;21067;-60
2021/07/10 05:23:08;;;;;;;7.83;5.67;;;;;;;25.08;57.84;100904.77;1702613;82;21016;-64
2021/07/10 05:25:36;;;;;;;8.25;5.70;;;;;;;25.13;57.40;100902.81;1723582;81;21082;-64
2021/07/10 05:28:03;;;;;;;7.90;6.17;;;;;;;25.17;56.91;100897.34;1721950;81;21559;-61
2021/07/10 05:30:30;;;;;;;9.18;5.92;;;;;;;25.21;56.95;100894.53;1718494;81;21154;-61
2021/07/10 05:32:56;;;;;;;9.95;6.70;;;;;;;25.25;56.62;100895.80;1693573;82;21699;-61
2021/07/10 05:35:26;;;;;;;8.28;6.05;;;;;;;25.29;56.61;100894.36;1720242;81;21110;-61
2021/07/10 05:37:52;;;;;;;10.70;6.60;;;;;;;25.34;56.12;100899.95;1657726;84;21426;-61
2021/07/10 05:40:18;;;;;;;9.20;6.67;;;;;;;25.34;56.11;100903.17;1664574;84;21537;-60
2021/07/10 05:42:50;;;;;;;9.13;6.65;;;;;;;25.37;56.00;100914.36;1666258;85;21147;-61
2021/07/10 05:45:20;;;;;;;8.98;6.25;;;;;;;25.41;55.41;100914.77;1671250;85;21218;-61
2021/07/10 05:47:49;;;;;;;10.45;7.33;;;;;;;25.45;55.37;100909.26;1704038;81;21564;-61
2021/07/10 05:50:16;;;;;;;8.43;6.20;;;;;;;25.48;55.27;100908.84;1727011;82;21070;-61
2021/07/10 05:52:44;;;;;;;8.98;6.53;;;;;;;25.52;55.38;100905.20;1723406;81;21078;-62
2021/07/10 05:55:10;;;;;;;8.50;6.58;;;;;;;25.54;55.12;100902.63;1696758;82;21059;-64
2021/07/10 05:57:36;;;;;;;7.58;6.60;;;;;;;25.57;55.53;100906.75;1702992;82;21751;-66
2021/07/10 06:00:07;;;;;;;7.55;5.37;;;;;;;25.64;55.26;100898.66;1719416;81;21118;-68
2021/07/10 06:02:34;;;;;;;8.15;6.45;;;;;;;25.79;55.27;100906.02;1731332;82;21075;-67
2021/07/10 06:05:02;;;;;;;8.38;6.50;;;;;;;25.88;54.83;100906.08;1724149;81;21700;-67
2021/07/10 06:07:28;;;;;;;8.35;6.12;;;;;;;25.94;54.62;100911.14;1721641;81;21142;-67
2021/07/10 06:09:56;;;;;;;9.98;6.67;;;;;;;25.99;54.41;100909.19;1727784;82;21056;-66
2021/07/10 06:12:23;;;;;;;10.38;6.20;;;;;;;26.05;54.11;100905.66;1723649;81;21680;-66
2021/07/10 06:14:50;;;;;;;8.13;5.95;;;;;;;26.11;53.86;100901.59;1727695;82;21111;-65
2021/07/10 06:17:17;;;;;;;8.98;6.47;;;;;;;26.16;53.44;100896.91;1730730;81;21193;-66
2021/07/10 06:19:44;;;;;;;10.58;6.92;;;;;;;26.22;53.88;100897.91;1723637;81;22409;-67
2021/07/10 06:22:10;;;;;;;8.18;6.33;;;;;;;26.29;53.27;100902.75;1728196;81;21081;-67
2021/07/10 06:24:38;;;;;;;7.78;5.92;;;;;;;26.33;53.06;100900.77;1721540;81;21111;-67
2021/07/10 06:27:05;;;;;;;7.42;5.80;;;;;;;26.37;52.82;100901.16;1662582;84;21068;-68
2021/07/10 06:29:31;;;;;;;8.18;6.75;;;;;;;26.43;53.30;100903.01;1665853;84;21143;-66
2021/07/10 06:31:59;;;;;;;10.58;6.47;;;;;;;26.48;53.27;100895.09;1663325;85;21276;-67
2021/07/10 06:34:29;;;;;;;9.15;6.42;;;;;;;26.53;52.80;100894.95;1665293;84;21054;-66
2021/07/10 06:36:58;;;;;;;8.63;6.62;;;;;;;26.57;52.53;100890.80;1692151;83;21009;-66
2021/07/10 06:39:32;;;;;;;7.72;6.53;;;;;;;26.59;52.67;100888.17;1666130;84;21571;-66
2021/07/10 06:42:00;;;;;;;8.95;6.42;;;;;;;26.63;52.69;100888.09;1687755;83;21091;-67
2021/07/10 06:44:26;;;;;;;9.63;6.65;;;;;;;26.69;52.79;100891.25;1672585;83;21095;-66
2021/07/10 06:46:55;;;;;;;8.88;6.33;;;;;;;26.78;52.77;100890.48;1672047;83;21087;-63
2021/07/10 06:49:23;;;;;;;8.80;7.90;;;;;;;26.85;52.67;100893.97;1688080;83;21643;-66
2021/07/10 06:51:52;;;;;;;7.78;6.65;;;;;;;26.91;51.96;100889.55;1690719;83;21070;-65
2021/07/10 06:54:20;;;;;;;7.95;6.03;;;;;;;26.99;52.18;100891.17;1663356;84;21135;-65
2021/07/10 06:56:49;;;;;;;7.37;5.92;;;;;;;27.05;51.46;100894.35;1703178;82;21291;-65
2021/07/10 06:59:23;;;;;;;7.67;6.28;;;;;;;27.13;51.27;100889.19;1733415;81;21102;-65
2021/07/10 07:01:52;;;;;;;9.90;8.05;;;;;;;27.19;50.30;100890.48;1728472;81;21106;-65
2021/07/10 07:04:20;;;;;;;8.35;6.55;;;;;;;27.28;49.87;100892.38;1627320;84;21130;-65
2021/07/10 07:06:49;;;;;;;9.83;6.22;;;;;;;27.34;49.67;100890.71;1651696;85;21119;-64
2021/07/10 07:09:16;;;;;;;8.00;5.83;;;;;;;27.37;49.12;100892.44;1657731;85;21083;-65
2021/07/10 07:11:44;;;;;;;7.70;5.92;;;;;;;27.40;49.00;100901.97;1712829;82;21157;-65
2021/07/10 07:14:12;;;;;;;8.35;5.97;;;;;;;27.42;48.83;100897.19;1718640;82;21005;-65
2021/07/10 07:16:41;;;;;;;8.05;5.78;;;;;;;27.47;48.42;100893.30;1712352;82;21043;-65
2021/07/10 07:19:14;;;;;;;8.08;5.53;;;;;;;27.55;48.11;100886.22;1708248;82;21114;-66
2021/07/10 07:21:41;;;;;;;7.72;5.55;;;;;;;27.61;49.31;100889.92;1712927;82;21072;-68
2021/07/10 07:24:08;;;;;;;7.40;5.42;;;;;;;27.70;49.22;100887.22;1719022;82;21118;-66
2021/07/10 07:26:44;;;;;;;7.37;5.58;;;;;;;27.78;49.17;100885.57;1713318;82;21109;-65
2021/07/10 07:29:11;;;;;;;7.42;5.37;;;;;;;27.87;48.11;100883.39;1712833;82;21134;-66
2021/07/10 07:31:39;;;;;;;6.55;5.00;;;;;;;27.90;47.84;100880.23;1719516;82;21111;-67
2021/07/10 07:34:06;;;;;;;7.40;5.28;;;;;;;27.98;47.63;100885.38;1716413;82;21585;-74
2021/07/10 07:36:33;;;;;;;7.05;5.03;;;;;;;28.06;47.01;100886.96;1716659;82;21122;-74
2021/07/10 07:39:02;;;;;;;6.25;4.67;;;;;;;28.13;46.35;100880.12;1720882;82;21257;-74
2021/07/10 07:41:35;;;;;;;9.65;4.55;;;;;;;28.19;46.28;100877.83;1709444;82;21153;-75
2021/07/10 07:44:04;;;;;;;8.03;4.90;;;;;;;28.26;45.21;100879.95;1716615;82;21059;-74
2021/07/10 07:46:35;;;;;;;6.17;4.50;;;;;;;28.33;44.70;100877.97;1694944;82;21090;-76
2021/07/10 07:49:04;;;;;;;6.62;4.37;;;;;;;28.38;44.26;100877.80;1710071;82;21062;-72
2021/07/10 07:51:33;;;;;;;8.58;4.72;;;;;;;28.42;43.78;100881.17;1710537;82;21089;-66
2021/07/10 07:53:59;;;;;;;6.37;4.28;;;;;;;28.48;43.49;100884.83;1706144;82;21833;-65
2021/07/10 07:56:26;;;;;;;6.78;4.50;;;;;;;28.50;43.17;100878.16;1691662;82;21126;-66
2021/07/10 07:58:53;;;;;;;6.97;4.58;;;;;;;28.56;43.45;100877.78;1714968;82;21143;-65
2021/07/10 08:01:19;;;;;;;6.45;4.53;;;;;;;28.65;44.76;100883.72;1717015;82;22379;-65
2021/07/10 08:03:47;;;;;;;8.78;5.55;;;;;;;28.74;44.63;100885.56;1710971;82;21082;-65
2021/07/10 08:06:14;;;;;;;7.85;5.22;;;;;;;28.83;42.51;100886.35;1712540;82;21079;-64
2021/07/10 08:08:42;;;;;;;8.63;5.53;;;;;;;28.85;41.86;100882.03;1709530;81;21153;-65
2021/07/10 08:11:10;;;;;;;7.80;5.33;;;;;;;28.87;41.50;100884.00;1720309;81;21098;-70
2021/07/10 08:13:37;;;;;;;8.88;5.62;;;;;;;28.90;41.53;100880.83;1687144;81;21094;-62
2021/07/10 08:16:06;;;;;;;8.25;4.75;;;;;;;28.93;42.20;100880.88;1722788;81;21517;-61
2021/07/10 08:18:34;;;;;;;6.53;4.12;;;;;;;28.99;42.20;100880.78;1721262;81;21122;-61
2021/07/10 08:21:02;;;;;;;5.90;4.03;;;;;;;29.08;42.13;100879.39;1720840;82;21106;-63
2021/07/10 08:23:29;;;;;;;6.42;3.75;;;;;;;29.15;40.92;100879.79;1723025;81;21098;-63
2021/07/10 08:25:56;;;;;;;7.47;4.35;;;;;;;29.22;40.14;100873.78;1725622;82;21989;-62
2021/07/10 08:28:22;;;;;;;6.87;4.75;;;;;;;29.27;39.76;100872.00;1695312;83;21114;-62
2021/07/10 08:30:49;;;;;;;9.10;5.10;;;;;;;29.31;39.49;100875.06;1667935;84;21135;-62
2021/07/10 08:33:15;;;;;;;7.40;4.45;;;;;;;29.34;40.37;100870.53;1647935;85;21102;-61
2021/07/10 08:35:42;;;;;;;7.75;4.12;;;;;;;29.42;40.62;100872.05;1644645;84;21337;-69
2021/07/10 08:38:09;;;;;;;6.00;4.12;;;;;;;29.48;40.30;100867.04;1715686;82;21039;-68
2021/07/10 08:40:36;;;;;;;6.67;4.10;;;;;;;29.55;40.55;100872.34;1717939;81;21328;-69
2021/07/10 08:43:03;;;;;;;6.42;4.10;;;;;;;29.61;40.49;100868.15;1722882;82;21158;-70
2021/07/10 08:45:31;;;;;;;6.08;4.00;;;;;;;29.70;40.14;100869.95;1723104;81;21091;-68
2021/07/10 08:48:01;;;;;;;6.28;4.50;;;;;;;29.79;39.83;100863.15;1722435;81;21059;-71
2021/07/10 08:50:28;;;;;;;8.53;4.97;;;;;;;29.84;39.29;100863.77;1725950;82;21126;-69
2021/07/10 08:52:55;;;;;;;7.20;4.22;;;;;;;29.84;39.51;100855.62;1720536;82;21848;-70
2021/07/10 08:55:21;;;;;;;5.78;4.03;;;;;;;29.82;40.43;100858.61;1669380;84;21110;-70
2021/07/10 08:57:49;;;;;;;7.92;4.47;;;;;;;29.86;39.83;100861.66;1668018;84;21760;-67
2021/07/10 09:00:19;;;;;;;5.45;3.87;;;;;;;29.91;39.70;100867.70;1708427;81;21169;-71
2021/07/10 09:02:48;;;;;;;6.17;3.80;;;;;;;29.96;39.21;100870.00;1726770;82;21059;-70
2021/07/10 09:05:17;;;;;;;7.25;4.03;;;;;;;29.97;38.90;100870.81;1710010;81;21047;-70
2021/07/10 09:08:21;;;;;;;7.70;4.10;;;;;;;29.99;38.69;100870.04;1725361;81;21162;-71
2021/07/10 09:10:55;;;;;;;6.12;4.05;;;;;;;30.01;38.29;100865.22;1724061;81;22278;-75
2021/07/10 09:13:26;;;;;;;6.95;4.15;;;;;;;30.04;38.44;100867.42;1720438;81;20942;-71
2021/07/10 09:15:53;;;;;;;6.70;4.70;;;;;;;30.07;38.67;100867.48;1671444;82;21097;-76
2021/07/10 09:18:20;;;;;;;7.28;3.98;;;;;;;30.13;39.52;100868.70;1677140;82;21346;-74
2021/07/10 09:20:48;;;;;;;6.15;4.55;;;;;;;30.20;39.29;100860.42;1720743;81;21058;-72
2021/07/10 09:23:30;;;;;;;6.87;4.50;;;;;;;30.29;37.31;100866.28;1696226;82;21131;-65
2021/07/10 09:26:13;;;;;;;7.50;4.17;;;;;;;30.34;36.17;100860.41;1700297;82;21120;-72
2021/07/10 09:28:40;;;;;;;7.53;4.55;;;;;;;30.38;36.30;100859.44;1724445;82;21336;-71
2021/07/10 09:31:16;;;;;;;7.78;4.40;;;;;;;30.45;36.65;100856.03;1727291;81;21046;-72
2021/07/10 09:33:44;;;;;;;8.20;4.00;;;;;;;30.49;36.04;100855.83;1721110;82;21142;-74
2021/07/10 09:36:10;;;;;;;6.60;4.28;;;;;;;30.48;36.41;100854.20;1725356;81;21098;-72
2021/07/10 09:38:36;;;;;;;8.35;4.35;;;;;;;30.47;36.46;100851.18;1726938;82;21063;-70
2021/07/10 09:41:11;;;;;;;7.12;4.53;;;;;;;30.48;36.63;100849.28;1633154;86;21178;-72
2021/07/10 09:43:39;;;;;;;6.20;4.20;;;;;;;30.48;35.89;100850.13;1680814;83;21056;-75
2021/07/10 09:46:08;;;;;;;6.60;3.90;;;;;;;30.51;36.82;100845.56;1725038;81;21086;-70
2021/07/10 09:48:38;;;;;;;8.63;4.08;;;;;;;30.63;38.00;100843.30;1651067;85;21075;-72
2021/07/10 09:51:26;;;;;;;8.83;4.12;;;;;;;30.78;38.42;100844.91;1721494;81;21027;-69
2021/07/10 09:54:06;;;;;;;6.78;4.37;;;;;;;30.90;36.97;100841.59;1721389;81;21154;-72
2021/07/10 09:56:37;;;;;;;6.15;3.92;;;;;;;31.00;37.24;100839.61;1720265;81;21142;-71
2021/07/10 09:59:18;;;;;;;6.10;4.08;;;;;;;31.09;37.05;100840.01;1654214;85;21367;-66
2021/07/10 10:01:46;;;;;;;7.28;4.15;;;;;;;31.16;36.65;100837.93;1694471;81;21146;-70
2021/07/10 10:04:28;;;;;;;6.58;4.05;;;;;;;31.23;36.43;100841.84;1724047;81;21070;-69
2021/07/10 10:06:57;;;;;;;9.30;4.35;;;;;;;31.29;35.44;100840.30;1679564;82;21570;-71
2021/07/10 10:09:27;;;;;;;8.60;4.70;;;;;;;31.27;35.13;100841.09;1726817;80;21157;-70
2021/07/10 10:12:00;;;;;;;5.80;3.98;;;;;;;31.30;35.83;100831.09;1728749;82;21119;-71
2021/07/10 10:14:30;;;;;;;7.35;4.03;;;;;;;31.39;36.21;100832.83;1729962;81;21078;-70
2021/07/10 10:16:58;;;;;;;6.87;4.53;;;;;;;31.50;36.12;100821.54;1727042;81;21079;-71
2021/07/10 10:19:27;;;;;;;6.30;4.25;;;;;;;31.59;36.22;100824.67;1721729;82;22333;-69
2021/07/10 10:21:57;;;;;;;6.40;4.40;;;;;;;31.67;35.78;100824.23;1662950;84;21143;-72
2021/07/10 10:24:24;;;;;;;9.23;3.52;;;;;;;31.75;34.80;100827.88;1667193;84;21381;-71
2021/07/10 10:26:51;;;;;;;5.85;3.95;;;;;;;31.77;34.92;100819.45;1666846;84;21087;-69
2021/07/10 10:29:19;;;;;;;6.72;4.35;;;;;;;31.78;34.66;100818.39;1664378;84;21126;-71
2021/07/10 10:31:48;;;;;;;6.47;4.65;;;;;;;31.83;34.92;100817.91;1693559;83;21137;-70
2021/07/10 10:34:14;;;;;;;6.30;4.35;;;;;;;31.87;35.16;100809.23;1671116;84;21113;-71
2021/07/10 10:36:44;;;;;;;6.03;3.85;;;;;;;31.85;34.04;100813.57;1688088;82;21098;-76
2021/07/10 10:39:17;;;;;;;5.78;4.15;;;;;;;31.87;33.75;100814.68;1685423;84;21127;-70
2021/07/10 10:41:52;;;;;;;5.58;3.98;;;;;;;31.90;33.20;100806.02;1681453;82;21591;-70
2021/07/10 10:44:19;;;;;;;6.05;4.30;;;;;;;31.85;33.20;100804.86;1688570;82;21165;-70
2021/07/10 10:46:52;;;;;;;5.60;3.85;;;;;;;31.81;34.34;100804.29;1690738;83;21071;-70
2021/07/10 10:49:48;;;;;;;6.53;4.42;;;;;;;31.78;33.85;100797.98;1689011;82;21335;-69
2021/07/10 10:52:32;;;;;;;8.60;4.60;;;;;;;31.76;32.87;100794.16;1689727;82;21130;-70
2021/07/10 10:55:19;;;;;;;6.30;3.90;;;;;;;31.66;33.09;100794.86;1672505;84;21080;-69
2021/07/10 10:57:57;;;;;;;8.28;4.08;;;;;;;31.59;33.91;100798.31;1664036;84;21178;-68
2021/07/10 11:03:22;;;;;;;8.53;5.10;;;;;;;31.76;34.69;100790.63;1786553;79;22622;-67
2021/07/10 11:05:52;;;;;;;6.08;4.22;;;;;;;31.73;33.66;100787.05;1750619;81;21026;-70
2021/07/10 11:08:51;;;;;;;6.85;4.12;;;;;;;31.76;33.88;100786.55;1747846;80;21534;-68
2021/07/10 11:11:23;;;;;;;6.25;4.37;;;;;;;31.82;35.17;100783.60;1749311;80;21505;-72
2021/07/10 11:14:07;;;;;;;6.10;4.50;;;;;;;31.99;35.78;100781.33;1717495;82;20922;-67
2021/07/10 11:16:32;;;;;;;5.95;4.05;;;;;;;32.11;34.88;100782.05;1713145;83;21014;-67
2021/07/10 11:19:07;;;;;;;6.08;4.62;;;;;;;32.22;35.35;100778.33;1694900;83;20963;-67
2021/07/10 11:21:44;;;;;;;6.30;3.50;;;;;;;32.33;34.41;100783.86;1655618;84;21007;-69
2021/07/10 11:24:21;;;;;;;6.15;3.98;;;;;;;32.42;33.38;100776.88;1688325;84;21992;-71
2021/07/10 11:27:00;;;;;;;6.65;4.08;;;;;;;32.50;33.10;100773.69;1693474;84;21643;-67
2021/07/10 11:29:41;;;;;;;7.55;4.25;;;;;;;32.59;33.01;100776.74;1680445;84;21126;-74
2021/07/10 11:32:16;;;;;;;7.03;4.47;;;;;;;32.68;32.96;100776.59;1689322;84;21976;-69